Time;durP1;ratioP1;P1;durP2;ratioP2;P2;SDS_P1;SDS_P2;PMS_P1;PMS_P2;Temp;Humidity;BMP_temperature;BMP_pressure;BME280_temperature;BME280_humidity;BME280_pressure;Samples;Min_cycle;Max_cycle;Signal;HPM_P1;HPM_P2
2023/11/28 00:01:44;;;;;;;;;;;;;;;11.05;53.96;98680.69;4979119;27;126843;-65
2023/11/28 00:04:10;;;;;;;;;;;;;;;11.04;54.19;98673.69;4967962;27;98511;-68
2023/11/28 00:06:36;;;;;;;;;;;;;;;11.04;54.31;98676.41;4968781;27;100005;-65
2023/11/28 00:09:05;;;;;;;;;;;;;;;11.03;54.13;98671.31;4993470;27;98240;-69
2023/11/28 00:11:33;;;;;;;;;;;;;;;11.03;54.08;98663.22;4987256;27;111246;-65
2023/11/28 00:13:59;;;;;;;;;;;;;;;11.02;54.25;98661.63;4984075;27;98008;-69
2023/11/28 00:16:25;;;;;;;;;;;;;;;11.02;53.90;98664.31;4980384;27;98419;-69
2023/11/28 00:18:51;;;;;;;;;;;;;;;11.02;54.40;98658.94;4971052;27;98015;-65
2023/11/28 00:21:17;;;;;;;;;;;;;;;11.00;54.10;98653.88;4965016;27;124628;-65
2023/11/28 00:23:43;;;;;;;;;;;;;;;11.00;54.17;98653.88;4967876;27;115070;-69
2023/11/28 00:26:09;;;;;;;;;;;;;;;10.99;54.26;98649.56;4985953;27;102551;-65
2023/11/28 00:28:35;;;;;;;;;;;;;;;10.99;54.23;98643.38;4967422;27;110479;-69
2023/11/28 00:31:01;;;;;;;;;;;;;;;10.97;54.11;98638.31;4966935;27;98100;-65
2023/11/28 00:33:27;;;;;;;;;;;;;;;10.97;54.25;98643.69;4977661;27;97833;-65
2023/11/28 00:35:53;;;;;;;;;;;;;;;10.97;54.37;98641.00;4970797;27;129140;-65
2023/11/28 00:38:19;;;;;;;;;;;;;;;10.96;54.43;98641.31;4956782;27;115165;-65
2023/11/28 00:40:45;;;;;;;;;;;;;;;10.94;54.21;98638.94;4964462;27;98301;-69
2023/11/28 00:43:14;;;;;;;;;;;;;;;10.94;54.05;98638.94;4977206;27;98804;-69
2023/11/28 00:45:40;;;;;;;;;;;;;;;10.94;54.32;98640.84;4970394;27;98036;-69
2023/11/28 00:48:06;;;;;;;;;;;;;;;10.93;54.06;98634.66;4962540;27;99467;-69
2023/11/28 00:50:32;;;;;;;;;;;;;;;10.92;53.99;98635.75;4987025;27;98276;-69
2023/11/28 00:52:59;;;;;;;;;;;;;;;10.92;54.32;98637.66;4967774;27;98005;-64
2023/11/28 00:55:25;;;;;;;;;;;;;;;10.91;54.15;98636.06;4963571;27;99576;-69
2023/11/28 00:57:51;;;;;;;;;;;;;;;10.91;54.07;98638.75;4969026;27;104511;-65
2023/11/28 01:00:17;;;;;;;;;;;;;;;10.89;54.20;98633.69;4981484;27;99077;-69
2023/11/28 01:02:44;;;;;;;;;;;;;;;10.90;54.08;98631.78;4961576;27;97961;-68
2023/11/28 01:05:11;;;;;;;;;;;;;;;10.88;54.11;98624.00;4976485;27;110859;-65
2023/11/28 01:07:37;;;;;;;;;;;;;;;10.88;54.19;98632.09;4963248;27;98147;-65
2023/11/28 01:10:04;;;;;;;;;;;;;;;10.86;54.20;98630.81;4964025;27;98234;-64
2023/11/28 01:12:30;;;;;;;;;;;;;;;10.87;54.18;98630.50;4960077;27;100071;-64
2023/11/28 01:14:56;;;;;;;;;;;;;;;10.86;53.73;98628.91;4956917;27;98282;-64
2023/11/28 01:17:22;;;;;;;;;;;;;;;10.85;54.09;98627.34;4964178;27;99401;-64
2023/11/28 01:19:48;;;;;;;;;;;;;;;10.85;54.13;98618.47;4949136;27;98044;-68
2023/11/28 01:22:14;;;;;;;;;;;;;;;10.85;54.30;98626.56;4959596;27;99593;-68
2023/11/28 01:24:41;;;;;;;;;;;;;;;10.85;54.20;98618.47;4945573;27;116250;-64
2023/11/28 01:27:09;;;;;;;;;;;;;;;10.84;54.07;98622.25;4961260;27;98153;-65
2023/11/28 01:29:35;;;;;;;;;;;;;;;10.82;54.08;98612.59;4944053;27;98471;-67
2023/11/28 01:32:02;;;;;;;;;;;;;;;10.81;54.04;98616.38;4950423;27;98679;-64
2023/11/28 01:34:28;;;;;;;;;;;;;;;10.81;54.11;98618.28;4945703;27;98592;-64
2023/11/28 01:36:55;;;;;;;;;;;;;;;10.80;53.96;98616.69;4957192;27;126762;-68
2023/11/28 01:39:21;;;;;;;;;;;;;;;10.79;54.01;98613.19;4942474;27;98054;-64
2023/11/28 01:41:47;;;;;;;;;;;;;;;10.78;53.85;98606.22;4959747;27;98423;-68
2023/11/28 01:44:13;;;;;;;;;;;;;;;10.78;54.07;98600.03;4958396;27;98220;-64
2023/11/28 01:46:39;;;;;;;;;;;;;;;10.76;54.31;98607.63;4979337;27;98639;-68
2023/11/28 01:49:08;;;;;;;;;;;;;;;10.75;54.38;98601.47;4957027;27;106905;-64
2023/11/28 01:51:35;;;;;;;;;;;;;;;10.75;53.85;98600.66;4947370;27;101543;-68
2023/11/28 01:54:02;;;;;;;;;;;;;;;10.73;54.07;98598.28;4948037;27;112645;-64
2023/11/28 01:56:29;;;;;;;;;;;;;;;10.75;54.61;98595.28;4948388;27;99965;-64
2023/11/28 01:58:55;;;;;;;;;;;;;;;10.72;54.41;98596.69;4959833;27;98329;-68
2023/11/28 02:01:22;;;;;;;;;;;;;;;10.72;54.05;98587.81;4954316;27;122188;-64
2023/11/28 02:03:48;;;;;;;;;;;;;;;10.71;54.27;98594.31;4955599;27;99356;-68
2023/11/28 02:06:14;;;;;;;;;;;;;;;10.69;53.89;98581.16;4955381;27;98230;-64
2023/11/28 02:08:41;;;;;;;;;;;;;;;10.69;54.33;98588.44;4974240;27;106493;-67
2023/11/28 02:11:07;;;;;;;;;;;;;;;10.68;53.99;98584.16;4961247;27;102679;-68
2023/11/28 02:13:33;;;;;;;;;;;;;;;10.67;53.99;98574.50;4950082;27;111795;-68
2023/11/28 02:15:59;;;;;;;;;;;;;;;10.67;53.82;98569.09;4958452;27;99655;-68
2023/11/28 02:18:25;;;;;;;;;;;;;;;10.66;53.98;98572.91;4973440;27;98513;-65
2023/11/28 02:20:52;;;;;;;;;;;;;;;10.65;54.25;98574.00;4970563;27;98949;-68
2023/11/28 02:23:17;;;;;;;;;;;;;;;10.64;54.01;98573.22;4978549;27;98342;-64
2023/11/28 02:25:47;;;;;;;;;;;;;;;10.63;54.23;98565.44;4969701;27;129356;-68
2023/11/28 02:28:20;;;;;;;;;;;;;;;10.63;54.21;98566.25;4971643;27;98419;-64
2023/11/28 02:30:47;;;;;;;;;;;;;;;10.62;54.57;98570.03;4967774;27;98533;-64
2023/11/28 02:33:13;;;;;;;;;;;;;;;10.60;54.34;98564.16;4979189;27;98590;-64
2023/11/28 02:35:39;;;;;;;;;;;;;;;10.61;54.16;98563.09;4966663;27;100002;-68
2023/11/28 02:38:05;;;;;;;;;;;;;;;10.60;54.06;98560.69;4957462;27;126928;-64
2023/11/28 02:40:31;;;;;;;;;;;;;;;10.59;54.35;98561.78;4970446;27;105084;-65
2023/11/28 02:42:57;;;;;;;;;;;;;;;10.59;53.99;98565.28;4981673;27;98100;-68
2023/11/28 02:45:23;;;;;;;;;;;;;;;10.59;54.29;98569.88;4976801;27;107593;-64
2023/11/28 02:47:49;;;;;;;;;;;;;;;10.58;54.23;98558.31;4964228;27;98165;-64
2023/11/28 02:50:15;;;;;;;;;;;;;;;10.57;54.24;98560.22;4959235;27;98182;-68
2023/11/28 02:52:41;;;;;;;;;;;;;;;10.57;54.12;98554.00;4958469;27;127806;-64
2023/11/28 02:55:07;;;;;;;;;;;;;;;10.57;54.12;98554.00;4979052;27;127196;-68
2023/11/28 02:57:34;;;;;;;;;;;;;;;10.56;54.01;98552.44;4961201;27;98119;-64
2023/11/28 03:00:00;;;;;;;;;;;;;;;10.56;54.30;98557.81;4985055;27;98527;-64
2023/11/28 03:02:27;;;;;;;;;;;;;;;10.55;54.12;98551.63;4990125;27;122910;-64
2023/11/28 03:04:53;;;;;;;;;;;;;;;10.55;53.70;98548.16;4977461;27;99416;-64
2023/11/28 03:07:19;;;;;;;;;;;;;;;10.54;54.19;98541.97;4995306;27;118604;-68
2023/11/28 03:09:45;;;;;;;;;;;;;;;10.54;54.34;98544.66;4978057;27;122993;-64
2023/11/28 03:12:11;;;;;;;;;;;;;;;10.54;54.26;98541.97;4979028;27;101297;-68
2023/11/28 03:14:37;;;;;;;;;;;;;;;10.53;54.20;98543.09;4980589;27;98107;-68
2023/11/28 03:17:03;;;;;;;;;;;;;;;10.54;53.95;98544.66;4962781;27;97958;-64
2023/11/28 03:19:29;;;;;;;;;;;;;;;10.52;53.94;98544.16;4977005;27;98470;-64
2023/11/28 03:21:55;;;;;;;;;;;;;;;10.53;53.78;98544.97;4968275;27;100162;-64
2023/11/28 03:24:21;;;;;;;;;;;;;;;10.52;54.36;98544.16;4965334;27;100222;-64
2023/11/28 03:26:47;;;;;;;;;;;;;;;10.51;53.88;98531.81;4962624;27;98450;-68
2023/11/28 03:29:13;;;;;;;;;;;;;;;10.51;54.13;98542.59;4981169;27;115610;-68
2023/11/28 03:31:39;;;;;;;;;;;;;;;10.51;54.29;98528.34;4962515;27;98007;-64
2023/11/28 03:34:06;;;;;;;;;;;;;;;10.50;54.14;98534.84;4985749;27;98712;-64
2023/11/28 03:36:32;;;;;;;;;;;;;;;10.49;54.20;98538.63;4964726;27;99242;-64
2023/11/28 03:38:58;;;;;;;;;;;;;;;10.49;54.24;98531.34;4960778;27;98146;-64
2023/11/28 03:41:24;;;;;;;;;;;;;;;10.49;54.23;98536.75;4968458;27;99971;-68
2023/11/28 03:43:50;;;;;;;;;;;;;;;10.49;54.23;98528.66;4959992;27;97928;-64
2023/11/28 03:46:16;;;;;;;;;;;;;;;10.48;53.78;98527.06;4990510;27;100713;-64
2023/11/28 03:48:42;;;;;;;;;;;;;;;10.48;53.96;98526.25;4968098;27;99459;-64
2023/11/28 03:51:08;;;;;;;;;;;;;;;10.47;54.14;98525.47;4975723;27;98832;-68
2023/11/28 03:53:35;;;;;;;;;;;;;;;10.48;53.96;98534.34;4979453;27;128721;-64
2023/11/28 03:56:08;;;;;;;;;;;;;;;10.47;53.75;98533.56;4991176;27;117122;-68
2023/11/28 03:58:34;;;;;;;;;;;;;;;10.47;53.91;98530.84;4958368;27;100234;-68
2023/11/28 04:01:00;;;;;;;;;;;;;;;10.46;53.86;98531.97;4969209;27;99946;-64
2023/11/28 04:03:28;;;;;;;;;;;;;;;10.47;54.04;98535.47;4969432;27;106112;-65
2023/11/28 04:05:54;;;;;;;;;;;;;;;10.47;54.26;98538.16;4984227;27;98300;-68
2023/11/28 04:08:21;;;;;;;;;;;;;;;10.44;54.12;98531.47;4963144;27;98379;-68
2023/11/28 04:10:46;;;;;;;;;;;;;;;10.45;54.11;98533.09;4966333;27;98415;-68
2023/11/28 04:13:12;;;;;;;;;;;;;;;10.46;54.26;98539.25;4977335;27;120645;-64
2023/11/28 04:15:38;;;;;;;;;;;;;;;10.44;54.15;98531.47;4962562;27;98747;-68
2023/11/28 04:18:05;;;;;;;;;;;;;;;10.44;53.86;98539.56;4961511;27;98324;-68
2023/11/28 04:20:31;;;;;;;;;;;;;;;10.44;53.88;98534.16;4967281;27;99296;-68
2023/11/28 04:22:57;;;;;;;;;;;;;;;10.44;54.09;98538.75;4963253;27;98311;-64
2023/11/28 04:25:23;;;;;;;;;;;;;;;10.43;53.91;98537.97;4965343;27;129080;-64
2023/11/28 04:27:49;;;;;;;;;;;;;;;10.43;54.21;98535.28;4970545;27;112486;-64
2023/11/28 04:30:16;;;;;;;;;;;;;;;10.44;53.99;98541.47;4978560;27;113899;-68
2023/11/28 04:32:42;;;;;;;;;;;;;;;10.42;53.84;98533.69;4994448;27;99004;-64
2023/11/28 04:35:08;;;;;;;;;;;;;;;10.42;54.22;98547.16;4963988;27;98099;-68
2023/11/28 04:37:34;;;;;;;;;;;;;;;10.42;54.10;98541.78;4956957;27;98455;-68
2023/11/28 04:40:00;;;;;;;;;;;;;;;10.42;54.07;98541.00;4965283;27;114341;-64
2023/11/28 04:42:27;;;;;;;;;;;;;;;10.41;54.14;98545.56;4967621;27;98747;-65
2023/11/28 04:44:54;;;;;;;;;;;;;;;10.41;54.22;98540.16;4978072;27;98039;-64
2023/11/28 04:47:20;;;;;;;;;;;;;;;10.42;53.89;98551.78;4976656;27;98464;-68
2023/11/28 04:49:46;;;;;;;;;;;;;;;10.40;53.96;98543.97;4972686;27;109731;-68
2023/11/28 04:52:12;;;;;;;;;;;;;;;10.41;54.14;98542.06;4987155;27;100732;-65
2023/11/28 04:54:38;;;;;;;;;;;;;;;10.41;54.36;98536.69;4979420;27;119418;-64
2023/11/28 04:57:05;;;;;;;;;;;;;;;10.40;54.16;98537.81;4964129;27;98089;-65
2023/11/28 04:59:31;;;;;;;;;;;;;;;10.40;53.79;98548.56;4963570;27;98770;-68
2023/11/28 05:01:57;;;;;;;;;;;;;;;10.40;53.80;98551.28;4968481;27;98484;-65
2023/11/28 05:04:23;;;;;;;;;;;;;;;10.40;53.98;98538.59;4959525;27;98246;-65
2023/11/28 05:06:49;;;;;;;;;;;;;;;10.39;53.92;98547.00;4969889;27;106147;-68
2023/11/28 05:09:17;;;;;;;;;;;;;;;10.40;54.25;98549.38;4969344;27;123351;-64
2023/11/28 05:11:43;;;;;;;;;;;;;;;10.39;53.64;98545.09;4965629;27;98057;-68
2023/11/28 05:14:09;;;;;;;;;;;;;;;10.40;54.00;98543.19;4976793;27;98064;-65
2023/11/28 05:16:36;;;;;;;;;;;;;;;10.39;54.33;98550.47;4991086;27;100309;-68
2023/11/28 05:19:02;;;;;;;;;;;;;;;10.38;53.88;98554.28;4977902;27;100300;-64
2023/11/28 05:21:28;;;;;;;;;;;;;;;10.38;54.18;98550.81;4967524;27;100428;-69
2023/11/28 05:23:54;;;;;;;;;;;;;;;10.37;53.93;98547.28;4963781;27;98214;-69
2023/11/28 05:26:20;;;;;;;;;;;;;;;10.38;54.16;98548.13;4958047;27;98304;-64
2023/11/28 05:28:47;;;;;;;;;;;;;;;10.37;53.81;98551.88;4976068;27;98411;-69
2023/11/28 05:31:13;;;;;;;;;;;;;;;10.37;53.83;98559.97;4976699;27;98752;-64
2023/11/28 05:33:42;;;;;;;;;;;;;;;10.37;54.17;98554.59;4981262;27;103187;-64
2023/11/28 05:36:08;;;;;;;;;;;;;;;10.37;54.10;98559.97;4989728;27;97954;-68
2023/11/28 05:38:34;;;;;;;;;;;;;;;10.36;54.02;98561.09;4982580;27;99498;-64
2023/11/28 05:41:01;;;;;;;;;;;;;;;10.35;54.08;98560.28;4971761;27;114149;-64
2023/11/28 05:43:29;;;;;;;;;;;;;;;10.35;53.80;98556.81;4979038;27;98835;-68
2023/11/28 05:45:55;;;;;;;;;;;;;;;10.35;53.97;98559.50;4982029;27;98811;-68
2023/11/28 05:48:21;;;;;;;;;;;;;;;10.34;54.36;98558.72;4982547;27;98049;-68
2023/11/28 05:50:47;;;;;;;;;;;;;;;10.33;54.21;98565.19;4966943;27;128150;-68
2023/11/28 05:53:15;;;;;;;;;;;;;;;10.34;54.04;98571.38;4982295;27;116230;-68
2023/11/28 05:55:41;;;;;;;;;;;;;;;10.32;54.12;98571.69;4968427;27;98590;-68
2023/11/28 05:58:08;;;;;;;;;;;;;;;10.31;54.14;98570.88;4959579;27;126687;-64
2023/11/28 06:00:34;;;;;;;;;;;;;;;10.31;54.14;98576.28;4969065;27;99527;-68
2023/11/28 06:03:00;;;;;;;;;;;;;;;10.30;54.05;98573.91;4971537;27;98033;-68
2023/11/28 06:05:27;;;;;;;;;;;;;;;10.30;54.14;98577.38;4984308;27;98346;-68
2023/11/28 06:07:53;;;;;;;;;;;;;;;10.30;53.84;98590.84;4977259;27;98268;-68
2023/11/28 06:10:19;;;;;;;;;;;;;;;10.30;54.28;98584.69;4993792;27;121256;-67
2023/11/28 06:12:45;;;;;;;;;;;;;;;10.29;53.90;98586.56;4968662;27;98115;-64
2023/11/28 06:15:11;;;;;;;;;;;;;;;10.29;53.68;98591.16;4985189;27;98631;-68
2023/11/28 06:17:40;;;;;;;;;;;;;;;10.28;54.16;98589.56;4985042;27;98086;-65
2023/11/28 06:20:06;;;;;;;;;;;;;;;10.29;54.25;98588.44;4986983;27;98280;-68
2023/11/28 06:22:33;;;;;;;;;;;;;;;10.28;53.73;98595.75;4974052;27;109061;-68
2023/11/28 06:24:59;;;;;;;;;;;;;;;10.29;53.77;98597.31;5001328;27;99988;-68
2023/11/28 06:27:25;;;;;;;;;;;;;;;10.28;54.30;98601.13;4967959;27;98010;-68
2023/11/28 06:29:52;;;;;;;;;;;;;;;10.26;53.78;98605.25;4986556;27;98589;-68
2023/11/28 06:32:18;;;;;;;;;;;;;;;10.27;53.97;98601.44;4966865;27;98162;-68
2023/11/28 06:34:46;;;;;;;;;;;;;;;10.26;54.07;98605.25;4982361;27;98027;-64
2023/11/28 06:37:16;;;;;;;;;;;;;;;10.26;54.07;98613.34;4978884;27;98845;-65
2023/11/28 06:39:44;;;;;;;;;;;;;;;10.25;54.12;98615.19;4964316;27;98032;-68
2023/11/28 06:42:10;;;;;;;;;;;;;;;10.25;54.12;98617.91;4994514;27;98352;-68
2023/11/28 06:44:36;;;;;;;;;;;;;;;10.24;53.85;98621.66;4979232;27;98007;-64
2023/11/28 06:47:02;;;;;;;;;;;;;;;10.24;53.83;98632.44;4970873;27;102910;-68
2023/11/28 06:49:28;;;;;;;;;;;;;;;10.23;54.39;98635.47;4967297;27;98453;-68
2023/11/28 06:51:54;;;;;;;;;;;;;;;10.23;54.11;98638.16;4961499;27;98158;-64
2023/11/28 06:54:20;;;;;;;;;;;;;;;10.23;54.01;98640.84;4974731;27;97968;-64
2023/11/28 06:56:46;;;;;;;;;;;;;;;10.22;53.95;98644.66;4987574;27;98251;-64
2023/11/28 06:59:13;;;;;;;;;;;;;;;10.23;53.94;98651.59;4996820;27;98492;-67
2023/11/28 07:01:42;;;;;;;;;;;;;;;10.22;54.23;98653.50;4966459;27;98014;-68
2023/11/28 07:04:07;;;;;;;;;;;;;;;10.22;54.11;98648.13;4976542;27;124138;-64
2023/11/28 07:06:33;;;;;;;;;;;;;;;10.22;53.75;98656.22;4966907;27;99021;-67
2023/11/28 07:08:59;;;;;;;;;;;;;;;10.22;54.02;98655.41;4961482;27;122162;-64
2023/11/28 07:11:25;;;;;;;;;;;;;;;10.22;54.29;98656.22;4970537;27;98133;-64
2023/11/28 07:13:51;;;;;;;;;;;;;;;10.22;53.67;98661.59;4977776;27;121556;-64
2023/11/28 07:16:17;;;;;;;;;;;;;;;10.21;54.28;98661.88;4967745;27;129034;-68
2023/11/28 07:18:44;;;;;;;;;;;;;;;10.22;54.16;98668.88;4979927;27;105586;-67
2023/11/28 07:21:10;;;;;;;;;;;;;;;10.22;53.76;98672.38;4981339;27;100035;-67
2023/11/28 07:23:37;;;;;;;;;;;;;;;10.21;53.70;98668.06;4984738;27;98465;-67
2023/11/28 07:26:04;;;;;;;;;;;;;;;10.22;54.00;98671.56;4986094;27;99692;-68
2023/11/28 07:28:30;;;;;;;;;;;;;;;10.22;53.67;98674.25;4969818;27;99978;-64
2023/11/28 07:30:56;;;;;;;;;;;;;;;10.23;54.17;98683.94;4986269;27;99042;-65
2023/11/28 07:33:23;;;;;;;;;;;;;;;10.22;53.78;98685.03;4972770;27;111907;-64
2023/11/28 07:35:49;;;;;;;;;;;;;;;10.22;54.02;98687.72;4967224;27;99854;-65
2023/11/28 07:38:16;;;;;;;;;;;;;;;10.20;53.67;98690.72;4987820;27;98385;-68
2023/11/28 07:40:42;;;;;;;;;;;;;;;10.21;54.13;98692.28;4975825;27;98113;-68
2023/11/28 07:43:08;;;;;;;;;;;;;;;10.23;53.97;98700.88;4978660;27;98367;-64
2023/11/28 07:45:36;;;;;;;;;;;;;;;10.22;53.95;98701.97;4978606;27;98575;-64
2023/11/28 07:48:03;;;;;;;;;;;;;;;10.23;54.03;98708.94;4964553;27;98784;-68
2023/11/28 07:50:29;;;;;;;;;;;;;;;10.23;53.87;98717.03;4984326;27;98197;-64
2023/11/28 07:52:55;;;;;;;;;;;;;;;10.24;54.03;98715.13;4967980;27;125514;-68
2023/11/28 07:55:21;;;;;;;;;;;;;;;10.25;53.89;98711.34;4969639;27;108324;-64
2023/11/28 07:57:47;;;;;;;;;;;;;;;10.24;53.43;98713.22;4967170;27;98326;-67
2023/11/28 08:00:13;;;;;;;;;;;;;;;10.25;54.02;98725.59;4978241;27;99123;-68
2023/11/28 08:02:40;;;;;;;;;;;;;;;10.26;53.58;98726.44;4966954;27;98403;-68
2023/11/28 08:05:06;;;;;;;;;;;;;;;10.26;53.70;98732.59;4971038;27;99264;-64
2023/11/28 08:07:33;;;;;;;;;;;;;;;10.26;53.54;98732.59;4967857;27;99171;-68
2023/11/28 08:10:02;;;;;;;;;;;;;;;10.27;53.98;98730.72;4974832;27;100076;-64
2023/11/28 08:12:28;;;;;;;;;;;;;;;10.27;53.68;98738.78;4985830;27;98570;-64
2023/11/28 08:14:54;;;;;;;;;;;;;;;10.28;53.94;98745.75;4964790;27;105008;-64
2023/11/28 08:17:20;;;;;;;;;;;;;;;10.27;53.69;98750.34;4992722;27;111794;-64
2023/11/28 08:19:47;;;;;;;;;;;;;;;10.28;53.78;98753.84;4973139;27;113123;-68
2023/11/28 08:22:13;;;;;;;;;;;;;;;10.28;53.96;98760.00;4976851;27;122615;-64
2023/11/28 08:24:39;;;;;;;;;;;;;;;10.29;53.46;98766.97;4990818;27;128431;-68
2023/11/28 08:27:05;;;;;;;;;;;;;;;10.30;53.95;98759.72;4974372;27;98150;-68
2023/11/28 08:29:31;;;;;;;;;;;;;;;10.31;53.65;98761.31;4984818;27;98138;-64
2023/11/28 08:32:00;;;;;;;;;;;;;;;10.34;53.46;98759.91;4987525;27;119870;-67
2023/11/28 08:34:26;;;;;;;;;;;;;;;10.35;53.47;98762.28;4996944;27;98499;-68
2023/11/28 08:36:52;;;;;;;;;;;;;;;10.36;53.56;98763.09;4988663;27;128719;-67
2023/11/28 08:39:19;;;;;;;;;;;;;;;10.37;53.90;98765.47;4990902;27;112591;-64
2023/11/28 08:41:45;;;;;;;;;;;;;;;10.39;53.82;98776.72;4988788;27;107291;-64
2023/11/28 08:44:11;;;;;;;;;;;;;;;10.42;53.41;98775.34;4983030;27;98223;-66
2023/11/28 08:46:37;;;;;;;;;;;;;;;10.43;53.55;98772.31;4975162;27;106073;-64
2023/11/28 08:49:06;;;;;;;;;;;;;;;10.46;53.83;98782.50;5004594;27;98300;-64
2023/11/28 08:51:33;;;;;;;;;;;;;;;10.47;53.52;98781.38;4989244;27;118338;-64
2023/11/28 08:53:59;;;;;;;;;;;;;;;10.50;54.01;98791.56;4979149;27;99529;-68
2023/11/28 08:56:25;;;;;;;;;;;;;;;10.52;53.46;98781.25;4966002;27;97958;-64
2023/11/28 08:58:54;;;;;;;;;;;;;;;10.54;53.50;98783.66;4967371;27;97870;-68
2023/11/28 09:01:23;;;;;;;;;;;;;;;10.55;53.54;98790.63;4968383;27;97958;-64
2023/11/28 09:03:50;;;;;;;;;;;;;;;10.56;53.53;98798.38;4990906;27;115093;-68
2023/11/28 09:06:17;;;;;;;;;;;;;;;10.59;53.63;98793.50;5017388;27;98821;-68
2023/11/28 09:08:43;;;;;;;;;;;;;;;10.59;53.45;98794.28;4981561;27;98101;-64
2023/11/28 09:11:09;;;;;;;;;;;;;;;10.63;53.62;98797.97;4985974;27;100850;-63
2023/11/28 09:13:35;;;;;;;;;;;;;;;10.65;53.76;98805.72;4980842;27;119667;-63
2023/11/28 09:16:06;;;;;;;;;;;;;;;10.68;53.61;98797.81;4965811;27;124891;-63
2023/11/28 09:18:32;;;;;;;;;;;;;;;10.71;53.86;98813.38;4967635;27;97808;-67
2023/11/28 09:20:58;;;;;;;;;;;;;;;10.72;53.23;98820.38;4957222;27;119586;-66
2023/11/28 09:23:25;;;;;;;;;;;;;;;10.74;53.53;98806.59;4959744;27;98119;-67
2023/11/28 09:25:51;;;;;;;;;;;;;;;10.74;53.44;98809.28;4974222;27;98378;-66
2023/11/28 09:28:17;;;;;;;;;;;;;;;10.74;53.65;98818.16;4959387;27;124539;-67
2023/11/28 09:30:43;;;;;;;;;;;;;;;10.74;53.72;98820.88;4962899;27;98757;-64
2023/11/28 09:33:09;;;;;;;;;;;;;;;10.75;53.43;98821.66;4959324;27;127877;-67
2023/11/28 09:35:35;;;;;;;;;;;;;;;10.74;53.30;98818.16;4963040;27;114366;-67
2023/11/28 09:38:01;;;;;;;;;;;;;;;10.75;53.44;98821.66;4963284;27;98007;-64
2023/11/28 09:40:27;;;;;;;;;;;;;;;10.74;53.52;98826.25;4968656;27;98189;-67
2023/11/28 09:42:53;;;;;;;;;;;;;;;10.73;53.78;98819.28;4964979;27;99336;-66
2023/11/28 09:45:20;;;;;;;;;;;;;;;10.73;53.44;98827.38;4943166;27;98149;-67
2023/11/28 09:47:46;;;;;;;;;;;;;;;10.74;53.91;98830.84;4970127;27;98166;-63
2023/11/28 09:50:12;;;;;;;;;;;;;;;10.72;53.48;98830.34;4951954;27;98987;-67
2023/11/28 09:52:43;;;;;;;;;;;;;;;10.72;53.70;98833.84;4961884;27;99741;-63
2023/11/28 09:55:08;;;;;;;;;;;;;;;10.72;53.59;98828.44;4958291;27;98441;-63
2023/11/28 09:57:35;;;;;;;;;;;;;;;10.72;53.55;98835.75;4950526;27;126094;-64
2023/11/28 10:00:04;;;;;;;;;;;;;;;10.72;53.68;98836.53;4946018;27;98883;-63
2023/11/28 10:02:30;;;;;;;;;;;;;;;10.74;53.91;98841.63;4984675;27;99024;-63
2023/11/28 10:04:56;;;;;;;;;;;;;;;10.75;53.51;98837.81;4956363;27;123998;-67
2023/11/28 10:07:26;;;;;;;;;;;;;;;10.76;53.29;98853.69;4958357;27;99269;-64
2023/11/28 10:09:54;;;;;;;;;;;;;;;10.78;53.43;98848.78;4948761;27;98253;-64
2023/11/28 10:12:20;;;;;;;;;;;;;;;10.78;53.81;98848.78;4958628;27;98128;-63
2023/11/28 10:14:46;;;;;;;;;;;;;;;10.80;53.38;98849.28;4969295;27;98485;-67
2023/11/28 10:17:14;;;;;;;;;;;;;;;10.81;53.70;98853.56;4981813;27;98100;-67
2023/11/28 10:19:42;;;;;;;;;;;;;;;10.85;53.63;98852.97;4966921;27;98121;-67
2023/11/28 10:22:08;;;;;;;;;;;;;;;10.85;53.84;98853.75;4987943;27;98769;-67
2023/11/28 10:24:34;;;;;;;;;;;;;;;10.87;53.40;98859.63;4969312;27;98344;-63
2023/11/28 10:27:00;;;;;;;;;;;;;;;10.87;53.72;98856.94;4967957;27;97893;-67
2023/11/28 10:29:31;;;;;;;;;;;;;;;10.89;53.64;98862.03;4977397;27;98385;-63
2023/11/28 10:31:58;;;;;;;;;;;;;;;10.88;53.65;98861.22;4970427;27;99462;-67
2023/11/28 10:34:24;;;;;;;;;;;;;;;10.89;53.45;98867.41;4969284;27;99631;-64
2023/11/28 10:36:50;;;;;;;;;;;;;;;10.89;53.77;98864.72;4966131;27;98649;-63
2023/11/28 10:39:18;;;;;;;;;;;;;;;10.89;53.42;98862.81;4965835;27;98299;-67
2023/11/28 10:41:44;;;;;;;;;;;;;;;10.89;53.65;98868.22;4967367;27;99999;-63
2023/11/28 10:44:11;;;;;;;;;;;;;;;10.88;53.82;98866.59;4980120;27;98532;-67
2023/11/28 10:46:38;;;;;;;;;;;;;;;10.88;53.73;98866.59;4981455;27;98439;-63
2023/11/28 10:49:07;;;;;;;;;;;;;;;10.88;53.42;98863.91;4972844;27;116420;-67
2023/11/28 10:51:34;;;;;;;;;;;;;;;10.89;53.79;98857.44;4970528;27;98012;-67
2023/11/28 10:54:07;;;;;;;;;;;;;;;10.88;53.62;98858.50;4979649;27;98302;-67
2023/11/28 10:56:50;;;;;;;;;;;;;;;10.90;53.85;98871.69;4965908;27;98063;-63
2023/11/28 10:59:31;;;;;;;;;;;;;;;10.90;53.61;98874.41;4964512;27;98687;-67
2023/11/28 11:01:57;;;;;;;;;;;;;;;10.91;53.64;98881.38;4984319;27;99881;-67
2023/11/28 11:04:23;;;;;;;;;;;;;;;10.91;53.45;98884.06;4960457;27;128873;-63
2023/11/28 11:06:49;;;;;;;;;;;;;;;10.91;53.60;98884.88;4967541;27;99493;-63
2023/11/28 11:09:16;;;;;;;;;;;;;;;10.92;53.54;98883.75;4972779;27;97965;-67
2023/11/28 11:11:42;;;;;;;;;;;;;;;10.95;53.72;98888.53;4967044;27;98066;-67
2023/11/28 11:14:40;;;;;;;;;;;;;;;10.97;53.46;98885.56;4981218;27;98624;-67
2023/11/28 11:17:18;;;;;;;;;;;;;;;10.99;53.54;98897.59;4979101;27;98193;-67
2023/11/28 11:19:46;;;;;;;;;;;;;;;11.01;53.59;98895.41;4980337;27;97929;-63
2023/11/28 11:22:13;;;;;;;;;;;;;;;11.04;53.50;98897.50;4953681;27;117122;-63
2023/11/28 11:24:39;;;;;;;;;;;;;;;11.09;53.46;98911.94;4971554;27;98204;-67
2023/11/28 11:27:06;;;;;;;;;;;;;;;11.11;53.37;98909.72;4952392;27;127330;-68
2023/11/28 11:29:37;;;;;;;;;;;;;;;11.12;53.50;98909.44;4945444;27;98978;-67
2023/11/28 11:32:07;;;;;;;;;;;;;;;11.14;53.47;98909.91;4973592;27;98325;-63
2023/11/28 11:34:49;;;;;;;;;;;;;;;11.19;53.71;98927.88;4944632;27;102480;-64
2023/11/28 11:37:17;;;;;;;;;;;;;;;11.21;53.35;98923.75;4962186;27;98926;-64
2023/11/28 11:39:47;;;;;;;;;;;;;;;11.24;53.29;98927.75;4956720;27;98965;-67
2023/11/28 11:42:14;;;;;;;;;;;;;;;11.27;53.66;98944.09;4949171;27;98566;-63
2023/11/28 11:45:02;;;;;;;;;;;;;;;11.29;53.45;98939.19;4956793;27;98127;-63
2023/11/28 11:47:30;;;;;;;;;;;;;;;11.31;53.49;98949.66;4963172;27;101166;-63
2023/11/28 11:49:57;;;;;;;;;;;;;;;11.33;53.44;98941.28;4963653;27;98782;-64
2023/11/28 11:52:27;;;;;;;;;;;;;;;11.35;53.41;98939.06;4977173;27;119136;-67
2023/11/28 11:55:12;;;;;;;;;;;;;;;11.38;53.65;98944.63;4977314;27;99031;-67
2023/11/28 11:57:38;;;;;;;;;;;;;;;11.41;53.60;98952.13;4976947;27;99390;-67
2023/11/28 12:00:06;;;;;;;;;;;;;;;11.42;53.43;98956.41;4980093;27;98521;-67
2023/11/28 12:02:39;;;;;;;;;;;;;;;11.42;53.47;98952.91;4962413;27;98229;-63
2023/11/28 12:05:06;;;;;;;;;;;;;;;11.42;53.55;98961.00;4983112;27;97977;-64
2023/11/28 12:07:33;;;;;;;;;;;;;;;11.42;53.43;98963.69;4947680;27;98146;-63
2023/11/28 12:10:08;;;;;;;;;;;;;;;11.41;53.60;98968.31;4976635;27;98617;-66
2023/11/28 12:12:34;;;;;;;;;;;;;;;11.41;53.63;98967.50;4947254;27;98453;-63
2023/11/28 12:15:00;;;;;;;;;;;;;;;11.40;53.67;98968.63;4950479;27;99554;-63
2023/11/28 12:17:26;;;;;;;;;;;;;;;11.39;53.64;98984.00;4949961;27;106363;-63
2023/11/28 12:19:52;;;;;;;;;;;;;;;11.38;53.52;98982.41;4967600;27;105351;-67
2023/11/28 12:22:18;;;;;;;;;;;;;;;11.35;53.45;98984.91;4962239;27;98346;-67
2023/11/28 12:24:44;;;;;;;;;;;;;;;11.34;53.61;98996.81;4953609;27;98098;-63
2023/11/28 12:27:10;;;;;;;;;;;;;;;11.33;53.59;99001.44;4968609;27;98107;-63
2023/11/28 12:29:37;;;;;;;;;;;;;;;11.33;53.73;99003.34;4962347;27;98650;-63
2023/11/28 12:32:03;;;;;;;;;;;;;;;11.31;53.53;98999.00;4957170;27;100132;-63
2023/11/28 12:34:31;;;;;;;;;;;;;;;11.31;53.64;99006.31;4962299;27;119374;-63
2023/11/28 12:36:57;;;;;;;;;;;;;;;11.29;53.63;99008.53;4962412;27;110745;-63
2023/11/28 12:39:27;;;;;;;;;;;;;;;11.28;53.65;99021.22;4951026;27;99128;-67
2023/11/28 12:41:53;;;;;;;;;;;;;;;11.27;53.70;99024.22;4961210;27;98129;-64